createdAt,value
2023-01-08T00:01:43.080Z,100885.81
2023-01-08T00:04:45.196Z,100885.88
2023-01-08T00:07:47.087Z,100885.78
2023-01-08T00:10:55.805Z,100897.75
2023-01-08T00:13:57.711Z,100891.78
2023-01-08T00:16:59.734Z,100896.16
2023-01-08T00:20:01.608Z,100886.72
2023-01-08T00:23:03.510Z,100893.56
2023-01-08T00:26:09.041Z,100882.41
2023-01-08T00:29:10.896Z,100881.38
2023-01-08T00:32:12.777Z,100891.50
2023-01-08T00:35:14.650Z,100881.19
2023-01-08T00:38:16.577Z,100881.19
2023-01-08T00:41:18.676Z,100892.38
2023-01-08T00:44:20.564Z,100887.34
2023-01-08T00:47:22.417Z,100884.00
2023-01-08T00:50:24.900Z,100887.41
2023-01-08T00:53:26.708Z,100887.44
2023-01-08T00:56:28.526Z,100887.50
2023-01-08T00:59:30.298Z,100888.38
2023-01-08T01:02:32.384Z,100885.84
2023-01-08T01:05:34.158Z,100884.16
2023-01-08T01:08:36.043Z,100878.13
2023-01-08T01:11:40.770Z,100882.31
2023-01-08T01:14:42.584Z,100880.69
2023-01-08T01:17:45.987Z,100885.81
2023-01-08T01:20:47.870Z,100878.81
2023-01-08T01:23:50.353Z,100877.09
2023-01-08T01:26:52.552Z,100870.25
2023-01-08T01:29:54.550Z,100883.13
2023-01-08T01:32:56.361Z,100876.28
2023-01-08T01:36:02.500Z,100865.13
2023-01-08T01:39:05.362Z,100871.13
2023-01-08T01:42:27.185Z,100872.78
2023-01-08T01:45:29.105Z,100866.81
2023-01-08T01:48:31.007Z,100859.03
2023-01-08T01:51:34.645Z,100860.75
2023-01-08T01:54:36.901Z,100869.28
2023-01-08T01:57:39.861Z,100877.81
2023-01-08T02:00:43.276Z,100880.34
2023-01-08T02:03:45.251Z,100879.34
2023-01-08T02:06:49.793Z,100883.56
2023-01-08T02:10:21.184Z,100877.50
2023-01-08T02:13:30.725Z,100875.78
2023-01-08T02:16:50.497Z,100881.00
2023-01-08T02:20:08.750Z,100874.91
2023-01-08T02:23:32.070Z,100879.25
2023-01-08T02:26:36.056Z,100868.13
2023-01-08T02:29:38.551Z,100877.56
2023-01-08T02:32:42.831Z,100881.88
2023-01-08T02:35:52.210Z,100892.28
2023-01-08T02:39:13.004Z,100889.59
2023-01-08T02:42:33.722Z,100894.84
2023-01-08T02:45:49.174Z,100894.59
2023-01-08T02:49:01.549Z,100900.50
2023-01-08T02:52:06.110Z,100896.31
2023-01-08T02:55:09.485Z,100889.44
2023-01-08T02:58:12.767Z,100891.22
2023-01-08T03:01:17.279Z,100895.50
2023-01-08T03:04:23.050Z,100898.06
2023-01-08T03:07:25.065Z,100900.66
2023-01-08T03:10:30.210Z,100892.81
2023-01-08T03:13:39.903Z,100900.44
2023-01-08T03:16:47.913Z,100904.00
2023-01-08T03:20:10.468Z,100903.25
2023-01-08T03:23:14.832Z,100901.47
2023-01-08T03:26:22.086Z,100908.38
2023-01-08T03:29:25.865Z,100904.06
2023-01-08T03:32:30.055Z,100910.88
2023-01-08T03:35:33.541Z,100924.75
2023-01-08T03:38:42.578Z,100907.59
2023-01-08T03:41:46.085Z,100915.31
2023-01-08T03:44:48.263Z,100918.69
2023-01-08T03:47:50.614Z,100913.53
2023-01-08T03:50:52.563Z,100916.06
2023-01-08T03:53:58.882Z,100908.41
2023-01-08T03:57:00.856Z,100912.59
2023-01-08T04:00:03.030Z,100910.06
2023-01-08T04:03:07.018Z,100910.94
2023-01-08T04:06:08.929Z,100905.75
2023-01-08T04:09:10.770Z,100894.47
2023-01-08T04:12:12.867Z,100896.16
2023-01-08T04:15:14.762Z,100890.94
2023-01-08T04:18:21.467Z,100893.47
2023-01-08T04:21:23.346Z,100904.59
2023-01-08T04:24:25.198Z,100899.38
2023-01-08T04:27:27.076Z,100901.13
2023-01-08T04:30:28.896Z,100906.22
2023-01-08T04:33:30.670Z,100916.47
2023-01-08T04:36:32.549Z,100913.06
2023-01-08T04:39:34.410Z,100910.38
2023-01-08T04:42:36.301Z,100924.91
2023-01-08T04:45:38.159Z,100917.00
2023-01-08T04:48:40.407Z,100915.19
2023-01-08T04:51:42.403Z,100913.47
2023-01-08T04:54:44.234Z,100920.25
2023-01-08T04:57:46.426Z,100916.00
2023-01-08T05:00:48.321Z,100917.75
2023-01-08T05:04:01.953Z,100908.25
2023-01-08T05:07:04.678Z,100909.19
2023-01-08T05:10:06.781Z,100905.63
2023-01-08T05:13:08.687Z,100909.94
2023-01-08T05:16:10.596Z,100906.53
2023-01-08T05:19:12.471Z,100913.44
2023-01-08T05:22:14.352Z,100916.91
2023-01-08T05:25:16.220Z,100922.88
2023-01-08T05:28:18.060Z,100917.63
2023-01-08T05:31:19.975Z,100927.94
2023-01-08T05:34:21.880Z,100940.81
2023-01-08T05:37:23.795Z,100943.44
2023-01-08T05:40:25.711Z,100933.16
2023-01-08T05:43:29.306Z,100935.03
2023-01-08T05:46:31.174Z,100929.88
2023-01-08T05:49:33.093Z,100934.94
2023-01-08T05:52:35.072Z,100944.41
2023-01-08T05:55:37.264Z,100947.91
2023-01-08T05:58:39.248Z,100956.63
2023-01-08T06:01:41.147Z,100954.03
2023-01-08T06:04:43.824Z,100973.03
2023-01-08T06:07:45.752Z,100964.44
2023-01-08T06:10:47.614Z,100968.88
2023-01-08T06:13:49.452Z,100966.31
2023-01-08T06:16:51.343Z,100965.53
2023-01-08T06:19:53.162Z,100967.22
2023-01-08T06:22:55.172Z,100968.16
2023-01-08T06:25:58.401Z,100975.16
2023-01-08T06:29:00.688Z,100972.78
2023-01-08T06:32:02.613Z,100989.03
2023-01-08T06:35:04.953Z,100984.69
2023-01-08T06:38:06.930Z,100985.53
2023-01-08T06:41:10.675Z,100990.03
2023-01-08T06:44:13.246Z,100990.13
2023-01-08T06:47:15.042Z,100982.56
2023-01-08T06:50:16.980Z,100993.84
2023-01-08T06:53:18.925Z,100988.75
2023-01-08T06:56:20.781Z,100991.63
2023-01-08T06:59:22.625Z,100991.75
2023-01-08T07:02:25.680Z,100985.06
2023-01-08T07:05:27.677Z,100977.53
2023-01-08T07:08:29.585Z,100990.63
2023-01-08T07:11:31.448Z,100996.06
2023-01-08T07:14:33.281Z,100993.53
2023-01-08T07:17:35.560Z,100989.50
2023-01-08T07:20:38.565Z,100986.22
2023-01-08T07:23:42.013Z,100982.84
2023-01-08T07:26:43.900Z,100986.47
2023-01-08T07:29:45.801Z,100979.81
2023-01-08T07:32:47.622Z,100980.03
2023-01-08T07:35:54.112Z,100976.84
2023-01-08T07:38:55.952Z,100978.66
2023-01-08T07:41:58.190Z,100976.22
2023-01-08T07:45:00.093Z,100980.66
2023-01-08T07:48:01.849Z,100981.66
2023-01-08T07:51:06.291Z,100992.97
2023-01-08T07:54:08.205Z,100985.38
2023-01-08T07:57:10.052Z,100989.84
2023-01-08T08:00:12.218Z,100993.34
2023-01-08T08:03:14.447Z,100988.19
2023-01-08T08:06:16.385Z,100995.97
2023-01-08T08:09:18.218Z,100997.72
2023-01-08T08:12:20.113Z,100990.78
2023-01-08T08:15:21.958Z,100988.19
2023-01-08T08:18:23.805Z,100993.38
2023-01-08T08:21:26.065Z,100995.94
2023-01-08T08:24:27.987Z,100985.50
2023-01-08T08:27:29.835Z,100975.13
2023-01-08T08:30:34.379Z,100967.25
2023-01-08T08:33:36.250Z,100971.63
2023-01-08T08:36:38.093Z,100974.22
2023-01-08T08:39:39.956Z,100979.38
2023-01-08T08:42:41.765Z,100972.41
2023-01-08T08:45:43.628Z,100960.22
2023-01-08T08:48:46.385Z,100962.81
2023-01-08T08:51:48.248Z,100954.91
2023-01-08T08:54:50.105Z,100962.53
2023-01-08T08:57:52.968Z,100945.19
2023-01-08T09:00:54.730Z,100937.28
2023-01-08T09:03:56.562Z,100937.25
2023-01-08T09:06:58.775Z,100945.84
2023-01-08T09:10:00.718Z,100946.66
2023-01-08T09:13:02.619Z,100950.06
2023-01-08T09:16:04.905Z,100948.16
2023-01-08T09:19:07.460Z,100935.06
2023-01-08T09:22:09.370Z,100923.84
2023-01-08T09:25:11.261Z,100923.03
2023-01-08T09:28:13.289Z,100929.28
2023-01-08T09:31:15.196Z,100933.72
2023-01-08T09:34:17.097Z,100924.19
2023-01-08T09:37:19.058Z,100934.56
2023-01-08T09:40:24.346Z,100931.88
2023-01-08T09:43:29.363Z,100930.94
2023-01-08T09:46:31.989Z,100936.22
2023-01-08T09:49:42.532Z,100926.69
2023-01-08T09:52:44.415Z,100918.16
2023-01-08T09:56:09.135Z,100913.09
2023-01-08T09:59:16.579Z,100907.19
2023-01-08T10:02:24.879Z,100915.72
2023-01-08T10:05:28.438Z,100915.88
2023-01-08T10:08:30.559Z,100911.56
2023-01-08T10:11:43.275Z,100912.50
2023-01-08T10:14:50.076Z,100917.72
2023-01-08T10:18:18.020Z,100902.22
2023-01-08T10:21:20.596Z,100916.06
2023-01-08T10:24:36.895Z,100903.06
2023-01-08T10:27:57.925Z,100897.91
2023-01-08T10:31:11.095Z,100904.81
2023-01-08T10:34:24.190Z,100890.88
2023-01-08T10:37:27.552Z,100884.78
2023-01-08T10:40:38.004Z,100886.56
2023-01-08T10:43:54.184Z,100887.44
2023-01-08T10:46:59.569Z,100889.16
2023-01-08T10:50:04.736Z,100893.53
2023-01-08T10:53:26.338Z,100880.50
2023-01-08T10:56:30.949Z,100874.44
2023-01-08T10:59:36.236Z,100875.34
2023-01-08T11:02:40.559Z,100860.56
2023-01-08T11:05:43.159Z,100865.69
2023-01-08T11:08:54.263Z,100863.03
2023-01-08T11:11:56.514Z,100854.44
2023-01-08T11:14:58.939Z,100852.66
2023-01-08T11:18:23.169Z,100855.22
2023-01-08T11:21:32.889Z,100862.09
2023-01-08T11:24:36.940Z,100870.69
2023-01-08T11:27:42.918Z,100889.81
2023-01-08T11:30:53.725Z,100893.31
2023-01-08T11:34:02.469Z,100894.19
2023-01-08T11:38:00.079Z,100914.03
2023-01-08T11:41:04.781Z,100908.91
2023-01-08T11:44:19.286Z,100907.19
2023-01-08T11:48:01.774Z,100904.56
2023-01-08T11:51:15.395Z,100902.72
2023-01-08T11:54:26.167Z,100903.59
2023-01-08T11:57:42.780Z,100914.84
2023-01-08T12:01:02.833Z,100919.19
2023-01-08T12:04:42.961Z,100912.28
2023-01-08T12:07:54.988Z,100911.41
2023-01-08T12:11:15.643Z,100912.25
2023-01-08T12:14:21.204Z,100910.47
2023-01-08T12:17:38.798Z,100914.81
2023-01-08T12:20:52.025Z,100918.31
2023-01-08T12:24:17.509Z,100922.69
2023-01-08T12:27:56.961Z,100914.00
2023-01-08T12:31:27.644Z,100901.97
2023-01-08T12:34:58.731Z,100898.59
2023-01-08T12:38:11.347Z,100895.97
2023-01-08T12:41:16.323Z,100899.47
2023-01-08T12:44:26.515Z,100892.47
2023-01-08T12:47:33.091Z,100885.53
2023-01-08T12:50:38.984Z,100887.25
2023-01-08T12:53:52.951Z,100890.78
2023-01-08T12:57:02.081Z,100889.09
2023-01-08T13:00:25.890Z,100891.75
2023-01-08T13:03:29.895Z,100897.81
2023-01-08T13:06:32.192Z,100890.88
2023-01-08T13:09:34.105Z,100890.06
2023-01-08T13:12:39.341Z,100887.47
2023-01-08T13:15:41.194Z,100891.78
2023-01-08T13:19:01.608Z,100880.53
2023-01-08T13:22:03.767Z,100888.34
2023-01-08T13:25:28.263Z,100890.13
2023-01-08T13:28:38.900Z,100890.13
2023-01-08T13:31:41.653Z,100884.09
2023-01-08T13:34:43.458Z,100884.09
2023-01-08T13:38:06.199Z,100879.78
2023-01-08T13:41:37.414Z,100891.94
2023-01-08T13:44:49.181Z,100888.50
2023-01-08T13:47:51.160Z,100894.56
2023-01-08T13:50:53.701Z,100904.94
2023-01-08T13:53:55.683Z,100904.97
2023-01-08T13:57:05.812Z,100899.78
2023-01-08T14:00:17.575Z,100909.31
2023-01-08T14:03:44.779Z,100917.13
2023-01-08T14:06:46.694Z,100913.66
2023-01-08T14:09:48.507Z,100922.31
2023-01-08T14:12:51.597Z,100917.13
2023-01-08T14:16:04.146Z,100917.16
2023-01-08T14:19:06.313Z,100923.22
2023-01-08T14:22:16.422Z,100919.75
2023-01-08T14:25:20.148Z,100935.34
2023-01-08T14:28:23.357Z,100936.22
2023-01-08T14:31:27.225Z,100944.88
2023-01-08T14:34:32.062Z,100943.16
2023-01-08T14:37:33.999Z,100936.28
2023-01-08T14:40:40.124Z,100940.59
2023-01-08T14:43:44.759Z,100931.97
2023-01-08T14:46:47.039Z,100933.69
2023-01-08T14:49:52.993Z,100929.38
2023-01-08T14:53:04.583Z,100922.47
2023-01-08T14:56:07.226Z,100919.88
2023-01-08T14:59:12.652Z,100914.69
2023-01-08T15:02:29.394Z,100912.97
2023-01-08T15:05:33.076Z,100911.25
2023-01-08T15:08:45.310Z,100911.25
2023-01-08T15:11:56.470Z,100910.38
2023-01-08T15:15:10.127Z,100906.94
2023-01-08T15:18:13.053Z,100905.19
2023-01-08T15:21:23.841Z,100908.66
2023-01-08T15:24:34.632Z,100908.66
2023-01-08T15:27:37.542Z,100910.38
2023-01-08T15:30:44.178Z,100906.06
2023-01-08T15:33:46.033Z,100906.94
2023-01-08T15:36:49.563Z,100906.97
2023-01-08T15:39:51.487Z,100901.78
2023-01-08T15:43:11.330Z,100897.47
2023-01-08T15:46:13.209Z,100894.88
2023-01-08T15:49:15.022Z,100894.88
2023-01-08T15:52:23.395Z,100887.94
2023-01-08T15:55:25.381Z,100894.00
2023-01-08T15:58:27.187Z,100903.50
2023-01-08T16:01:30.395Z,100895.72
2023-01-08T16:04:32.300Z,100903.53
2023-01-08T16:07:34.164Z,100901.81
2023-01-08T16:10:35.956Z,100903.53
2023-01-08T16:13:37.860Z,100913.03
2023-01-08T16:16:39.864Z,100907.84
2023-01-08T16:19:43.095Z,100906.09
2023-01-08T16:22:45.168Z,100905.22
2023-01-08T16:25:47.146Z,100904.38
2023-01-08T16:28:48.985Z,100908.69
2023-01-08T16:31:51.087Z,100914.72
2023-01-08T16:34:54.930Z,100917.31
2023-01-08T16:37:56.847Z,100910.41
2023-01-08T16:40:59.629Z,100907.81
2023-01-08T16:44:01.598Z,100910.38
2023-01-08T16:47:03.715Z,100919.00
2023-01-08T16:50:05.884Z,100907.78
2023-01-08T16:53:07.775Z,100925.91
2023-01-08T16:56:09.906Z,100924.16
2023-01-08T16:59:22.720Z,100925.03
2023-01-08T17:02:25.966Z,100925.03
2023-01-08T17:05:27.760Z,100919.84
2023-01-08T17:08:29.670Z,100913.78
2023-01-08T17:11:32.266Z,100915.50
2023-01-08T17:14:35.598Z,100907.72
2023-01-08T17:17:37.526Z,100908.56
2023-01-08T17:20:39.366Z,100915.44
2023-01-08T17:23:41.692Z,100899.00
2023-01-08T17:26:43.659Z,100901.59
2023-01-08T17:29:45.529Z,100900.75
2023-01-08T17:32:47.346Z,100898.13
2023-01-08T17:35:49.221Z,100908.47
2023-01-08T17:38:53.589Z,100908.47
2023-01-08T17:42:14.023Z,100913.63
2023-01-08T17:45:17.462Z,100910.13
2023-01-08T17:48:19.491Z,100906.66
2023-01-08T17:51:21.337Z,100891.97
2023-01-08T17:54:24.215Z,100892.81
2023-01-08T17:57:26.668Z,100899.69
2023-01-08T18:00:28.705Z,100887.59
2023-01-08T18:03:30.553Z,100884.09
2023-01-08T18:06:34.373Z,100893.59
2023-01-08T18:09:36.899Z,100884.94
2023-01-08T18:12:40.581Z,100888.34
2023-01-08T18:15:42.506Z,100882.34
2023-01-08T18:18:44.579Z,100876.31
2023-01-08T18:21:49.705Z,100882.34
2023-01-08T18:24:51.787Z,100893.56
2023-01-08T18:27:54.155Z,100889.28
2023-01-08T18:30:56.030Z,100880.66
2023-01-08T18:33:58.558Z,100890.09
2023-01-08T18:37:00.434Z,100897.84
2023-01-08T18:40:02.571Z,100901.31
2023-01-08T18:43:04.459Z,100909.94
2023-01-08T18:46:08.065Z,100910.81
2023-01-08T18:49:09.924Z,100919.44
2023-01-08T18:52:14.010Z,100921.97
2023-01-08T18:55:15.948Z,100925.44
2023-01-08T18:58:17.821Z,100916.78
2023-01-08T19:01:19.886Z,100921.88
2023-01-08T19:04:21.777Z,100928.75
2023-01-08T19:07:23.873Z,100927.91
2023-01-08T19:10:25.769Z,100929.66
2023-01-08T19:13:27.672Z,100925.28
2023-01-08T19:16:29.682Z,100926.16
2023-01-08T19:19:31.661Z,100925.28
2023-01-08T19:22:33.777Z,100922.72
2023-01-08T19:25:39.680Z,100921.81
2023-01-08T19:28:42.829Z,100926.16
2023-01-08T19:31:45.069Z,100931.31
2023-01-08T19:34:47.583Z,100931.31
2023-01-08T19:37:49.460Z,100935.59
2023-01-08T19:40:51.280Z,100936.47
2023-01-08T19:43:54.785Z,100932.25
2023-01-08T19:46:56.636Z,100934.84
2023-01-08T19:49:58.455Z,100939.16
2023-01-08T19:53:00.588Z,100937.44
2023-01-08T19:56:07.516Z,100934.88
2023-01-08T19:59:11.362Z,100934.88
2023-01-08T20:02:13.596Z,100939.19
2023-01-08T20:05:15.505Z,100940.84
2023-01-08T20:08:17.650Z,100943.44
2023-01-08T20:11:21.305Z,100939.09
2023-01-08T20:14:23.357Z,100940.00
2023-01-08T20:17:25.353Z,100938.25
2023-01-08T20:20:27.416Z,100939.09
2023-01-08T20:23:29.444Z,100936.50
2023-01-08T20:26:32.306Z,100929.63
2023-01-08T20:29:34.232Z,100929.63
2023-01-08T20:32:36.672Z,100930.47
2023-01-08T20:35:38.691Z,100933.06
2023-01-08T20:38:41.340Z,100933.91
2023-01-08T20:41:50.263Z,100938.22
2023-01-08T20:45:05.789Z,100931.34
2023-01-08T20:48:07.882Z,100933.91
2023-01-08T20:51:12.839Z,100936.53
2023-01-08T20:54:16.331Z,100944.25
2023-01-08T20:57:18.330Z,100939.97
2023-01-08T21:00:22.080Z,100939.09
2023-01-08T21:03:24.095Z,100945.13
2023-01-08T21:06:29.069Z,100943.41
2023-01-08T21:09:31.054Z,100946.03
2023-01-08T21:12:35.696Z,100947.72
2023-01-08T21:15:37.867Z,100952.88
2023-01-08T21:18:43.989Z,100948.56
2023-01-08T21:21:45.984Z,100948.56
2023-01-08T21:24:47.820Z,100950.28
2023-01-08T21:27:49.637Z,100960.63
2023-01-08T21:30:52.254Z,100954.56
2023-01-08T21:33:56.741Z,100947.66
2023-01-08T21:36:58.605Z,100951.94
2023-01-08T21:40:00.523Z,100939.91
2023-01-08T21:43:20.847Z,100948.50
2023-01-08T21:46:28.168Z,100957.13
2023-01-08T21:49:30.200Z,100957.13
2023-01-08T21:52:50.863Z,100947.66
2023-01-08T21:55:52.721Z,100957.13
2023-01-08T21:58:54.536Z,100964.88
2023-01-08T22:01:56.441Z,100962.28
2023-01-08T22:04:58.452Z,100956.22
2023-01-08T22:08:00.203Z,100958.75
2023-01-08T22:11:06.698Z,100967.28
2023-01-08T22:14:08.650Z,100956.09
2023-01-08T22:17:10.654Z,100966.38
2023-01-08T22:20:14.131Z,100961.22
2023-01-08T22:23:15.935Z,100968.09
2023-01-08T22:26:20.145Z,100975.88
2023-01-08T22:29:22.013Z,100968.97
2023-01-08T22:32:23.908Z,100967.28
2023-01-08T22:35:25.790Z,100958.69
2023-01-08T22:38:27.626Z,100956.09
2023-01-08T22:41:29.490Z,100959.50
2023-01-08T22:44:31.400Z,100944.84
2023-01-08T22:47:33.180Z,100951.75
2023-01-08T22:50:35.183Z,100943.13
2023-01-08T22:53:37.529Z,100934.50
2023-01-08T22:56:39.594Z,100933.59
2023-01-08T22:59:41.495Z,100941.28
2023-01-08T23:02:43.373Z,100932.63
2023-01-08T23:05:45.193Z,100930.00
2023-01-08T23:08:47.768Z,100931.75
2023-01-08T23:11:49.629Z,100925.75
2023-01-08T23:14:51.498Z,100925.72
2023-01-08T23:17:53.500Z,100928.28
2023-01-08T23:21:06.960Z,100918.81
2023-01-08T23:24:12.262Z,100920.50
2023-01-08T23:27:14.357Z,100911.00
2023-01-08T23:30:16.671Z,100903.25
2023-01-08T23:33:18.487Z,100905.81
2023-01-08T23:36:21.510Z,100904.13
2023-01-08T23:39:26.625Z,100900.63
2023-01-08T23:42:29.591Z,100911.75
2023-01-08T23:45:31.479Z,100902.28
2023-01-08T23:48:33.901Z,100909.94
2023-01-08T23:51:36.589Z,100907.25
2023-01-08T23:54:38.375Z,100900.31
2023-01-08T23:57:40.145Z,100909.00
